createdAt,value
2023-01-27T00:00:39.226Z,94287.75
2023-01-27T00:03:06.593Z,94288.34
2023-01-27T00:05:33.994Z,94275.63
2023-01-27T00:08:01.058Z,94281.63
2023-01-27T00:10:28.486Z,94275.94
2023-01-27T00:13:13.434Z,94264.97
2023-01-27T00:15:40.274Z,94275.31
2023-01-27T00:18:07.687Z,94270.94
2023-01-27T00:20:53.620Z,94272.13
2023-01-27T00:23:43.975Z,94259.16
2023-01-27T00:26:13.600Z,94256.31
2023-01-27T00:28:43.770Z,94227.03
2023-01-27T00:31:33.078Z,94249.94
2023-01-27T00:34:09.043Z,94248.44
2023-01-27T00:36:39.378Z,94247.81
2023-01-27T00:39:07.443Z,94249.88
2023-01-27T00:41:35.197Z,94256.69
2023-01-27T00:44:02.449Z,94258.91
2023-01-27T00:46:29.420Z,94252.41
2023-01-27T00:48:56.369Z,94259.69
2023-01-27T00:51:23.964Z,94267.28
2023-01-27T00:53:50.853Z,94272.13
2023-01-27T00:56:17.935Z,94255.97
2023-01-27T00:58:44.860Z,94248.81
2023-01-27T01:01:14.936Z,94263.81
2023-01-27T01:03:42.792Z,94261.66
2023-01-27T01:06:12.436Z,94259.22
2023-01-27T01:08:39.384Z,94252.63
2023-01-27T01:11:07.729Z,94255.47
2023-01-27T01:13:35.130Z,94246.38
2023-01-27T01:16:13.820Z,94251.38
2023-01-27T01:18:42.916Z,94249.91
2023-01-27T01:21:10.788Z,94249.13
2023-01-27T01:23:42.881Z,94268.34
2023-01-27T01:26:11.668Z,94260.13
2023-01-27T01:28:39.242Z,94250.09
2023-01-27T01:31:13.378Z,94252.78
2023-01-27T01:33:40.408Z,94249.09
2023-01-27T01:36:12.586Z,94256.31
2023-01-27T01:38:39.663Z,94262.06
2023-01-27T01:41:08.222Z,94275.16
2023-01-27T01:43:35.261Z,94273.78
2023-01-27T01:46:02.922Z,94274.00
2023-01-27T01:48:32.443Z,94282.53
2023-01-27T01:51:04.972Z,94261.28
2023-01-27T01:53:38.040Z,94250.19
2023-01-27T01:56:10.881Z,94249.31
2023-01-27T01:58:39.686Z,94245.22
2023-01-27T02:01:07.333Z,94243.16
2023-01-27T02:03:37.195Z,94241.69
2023-01-27T02:06:06.135Z,94227.00
2023-01-27T02:08:40.161Z,94223.25
2023-01-27T02:11:09.111Z,94217.81
2023-01-27T02:13:39.373Z,94204.84
2023-01-27T02:16:08.755Z,94195.50
2023-01-27T02:18:35.770Z,94192.78
2023-01-27T02:21:03.233Z,94201.00
2023-01-27T02:24:00.883Z,94205.84
2023-01-27T02:26:33.570Z,94191.66
2023-01-27T02:29:05.646Z,94193.56
2023-01-27T02:31:32.979Z,94189.25
2023-01-27T02:34:19.330Z,94198.00
2023-01-27T02:36:51.147Z,94197.97
2023-01-27T02:39:22.278Z,94197.00
2023-01-27T02:41:57.083Z,94194.31
2023-01-27T02:44:23.894Z,94196.81
2023-01-27T02:46:50.777Z,94190.13
2023-01-27T02:49:17.814Z,94200.03
2023-01-27T02:51:44.952Z,94205.38
2023-01-27T02:54:11.760Z,94214.41
2023-01-27T02:56:38.618Z,94207.16
2023-01-27T02:59:08.009Z,94210.13
2023-01-27T03:01:41.183Z,94200.09
2023-01-27T03:04:09.295Z,94199.88
2023-01-27T03:06:36.095Z,94198.44
2023-01-27T03:09:04.336Z,94186.41
2023-01-27T03:11:49.948Z,94183.50
2023-01-27T03:14:18.303Z,94189.25
2023-01-27T03:17:05.992Z,94179.88
2023-01-27T03:19:33.116Z,94177.22
2023-01-27T03:22:02.024Z,94163.88
2023-01-27T03:24:30.885Z,94172.75
2023-01-27T03:27:01.320Z,94165.81
2023-01-27T03:29:57.973Z,94158.41
2023-01-27T03:32:28.912Z,94157.19
2023-01-27T03:35:48.630Z,94147.75
2023-01-27T03:38:38.672Z,94142.41
2023-01-27T03:41:24.074Z,94122.25
2023-01-27T03:44:09.340Z,94123.84
2023-01-27T03:46:36.178Z,94126.88
2023-01-27T03:49:02.869Z,94120.97
2023-01-27T03:51:29.710Z,94128.00
2023-01-27T03:53:56.553Z,94129.88
2023-01-27T03:56:23.468Z,94128.94
2023-01-27T03:58:50.874Z,94119.47
2023-01-27T04:01:20.401Z,94128.72
2023-01-27T04:04:06.432Z,94136.63
2023-01-27T04:07:14.031Z,94161.28
2023-01-27T04:09:40.988Z,94178.44
2023-01-27T04:12:07.800Z,94188.06
2023-01-27T04:14:39.483Z,94194.25
2023-01-27T04:17:14.952Z,94216.22
2023-01-27T04:19:42.213Z,94207.47
2023-01-27T04:22:11.608Z,94205.00
2023-01-27T04:24:38.823Z,94188.53
2023-01-27T04:27:08.271Z,94196.16
2023-01-27T04:29:41.260Z,94206.56
2023-01-27T04:32:10.539Z,94215.44
2023-01-27T04:34:37.933Z,94223.84
2023-01-27T04:37:07.643Z,94224.75
2023-01-27T04:39:35.042Z,94213.72
2023-01-27T04:42:02.311Z,94218.31
2023-01-27T04:44:29.871Z,94228.69
2023-01-27T04:46:56.706Z,94228.50
2023-01-27T04:49:23.479Z,94216.22
2023-01-27T04:51:50.320Z,94215.75
2023-01-27T04:54:17.256Z,94227.91
2023-01-27T04:57:01.489Z,94231.44
2023-01-27T04:59:29.699Z,94226.13
2023-01-27T05:01:56.535Z,94221.31
2023-01-27T05:04:23.575Z,94229.56
2023-01-27T05:06:50.283Z,94229.84
2023-01-27T05:09:17.267Z,94223.69
2023-01-27T05:11:43.958Z,94228.81
2023-01-27T05:14:10.753Z,94220.47
2023-01-27T05:16:38.755Z,94210.47
2023-01-27T05:19:05.727Z,94223.81
2023-01-27T05:21:32.674Z,94230.13
2023-01-27T05:23:59.391Z,94217.81
2023-01-27T05:26:27.833Z,94203.66
2023-01-27T05:28:57.565Z,94204.25
2023-01-27T05:31:27.113Z,94199.19
2023-01-27T05:33:55.502Z,94204.06
2023-01-27T05:36:24.300Z,94197.28
2023-01-27T05:38:51.424Z,94203.66
2023-01-27T05:41:19.916Z,94208.84
2023-01-27T05:43:52.687Z,94167.19
2023-01-27T05:46:25.551Z,94176.56
2023-01-27T05:48:54.521Z,94183.34
2023-01-27T05:51:24.144Z,94193.41
2023-01-27T05:53:51.251Z,94197.88
2023-01-27T05:56:19.414Z,94202.19
2023-01-27T05:58:46.782Z,94206.03
2023-01-27T06:01:17.062Z,94206.59
2023-01-27T06:03:44.860Z,94221.91
2023-01-27T06:06:12.939Z,94214.25
2023-01-27T06:08:40.660Z,94205.06
2023-01-27T06:11:07.853Z,94200.44
2023-01-27T06:13:39.026Z,94200.72
2023-01-27T06:16:11.668Z,94197.28
2023-01-27T06:18:39.416Z,94204.34
2023-01-27T06:21:08.804Z,94207.94
2023-01-27T06:23:35.987Z,94218.16
2023-01-27T06:26:06.850Z,94209.03
2023-01-27T06:28:33.816Z,94219.97
2023-01-27T06:31:12.648Z,94212.38
2023-01-27T06:33:40.147Z,94213.19
2023-01-27T06:36:14.295Z,94204.47
2023-01-27T06:38:41.667Z,94214.66
2023-01-27T06:41:08.433Z,94213.00
2023-01-27T06:43:35.260Z,94218.41
2023-01-27T06:46:05.404Z,94225.50
2023-01-27T06:48:33.016Z,94233.78
2023-01-27T06:51:00.014Z,94230.50
2023-01-27T06:53:27.173Z,94240.88
2023-01-27T06:56:01.335Z,94234.34
2023-01-27T06:58:29.226Z,94234.44
2023-01-27T07:00:57.088Z,94243.81
2023-01-27T07:03:24.773Z,94242.66
2023-01-27T07:05:52.653Z,94227.06
2023-01-27T07:08:19.676Z,94243.81
2023-01-27T07:10:46.368Z,94251.00
2023-01-27T07:13:15.110Z,94248.84
2023-01-27T07:15:42.265Z,94237.06
2023-01-27T07:18:10.472Z,94230.28
2023-01-27T07:20:37.760Z,94232.50
2023-01-27T07:23:05.598Z,94240.78
2023-01-27T07:25:34.345Z,94237.56
2023-01-27T07:28:02.333Z,94224.38
2023-01-27T07:30:29.962Z,94235.31
2023-01-27T07:33:03.369Z,94240.59
2023-01-27T07:35:30.249Z,94233.50
2023-01-27T07:37:58.229Z,94241.47
2023-01-27T07:40:25.226Z,94223.69
2023-01-27T07:42:52.000Z,94235.06
2023-01-27T07:45:19.904Z,94236.94
2023-01-27T07:47:46.682Z,94236.81
2023-01-27T07:50:13.774Z,94235.69
2023-01-27T07:52:40.739Z,94235.97
2023-01-27T07:55:08.343Z,94235.91
2023-01-27T07:57:35.293Z,94246.09
2023-01-27T08:00:02.432Z,94239.28
2023-01-27T08:02:39.078Z,94236.59
2023-01-27T08:05:06.145Z,94237.63
2023-01-27T08:07:33.029Z,94244.19
2023-01-27T08:09:59.961Z,94233.03
2023-01-27T08:12:26.656Z,94243.69
2023-01-27T08:14:53.509Z,94225.56
2023-01-27T08:17:20.300Z,94234.75
2023-01-27T08:19:50.645Z,94232.25
2023-01-27T08:22:21.217Z,94225.56
2023-01-27T08:24:51.483Z,94237.91
2023-01-27T08:27:18.349Z,94238.91
2023-01-27T08:29:45.163Z,94247.47
2023-01-27T08:32:14.168Z,94246.78
2023-01-27T08:34:42.316Z,94240.78
2023-01-27T08:37:09.181Z,94231.00
2023-01-27T08:39:36.037Z,94248.66
2023-01-27T08:42:03.819Z,94247.81
2023-01-27T08:44:31.566Z,94256.88
2023-01-27T08:46:58.362Z,94247.78
2023-01-27T08:49:25.187Z,94251.00
2023-01-27T08:51:51.929Z,94254.34
2023-01-27T08:54:18.994Z,94248.34
2023-01-27T08:56:45.752Z,94258.47
2023-01-27T08:59:12.551Z,94246.38
2023-01-27T09:01:41.639Z,94245.47
2023-01-27T09:04:08.999Z,94243.06
2023-01-27T09:06:35.761Z,94249.13
2023-01-27T09:09:11.188Z,94247.47
2023-01-27T09:11:41.603Z,94233.72
2023-01-27T09:14:08.414Z,94236.66
2023-01-27T09:16:35.517Z,94231.59
2023-01-27T09:19:02.405Z,94241.97
2023-01-27T09:21:29.688Z,94245.13
2023-01-27T09:23:56.440Z,94238.81
2023-01-27T09:26:23.533Z,94236.56
2023-01-27T09:28:50.354Z,94229.88
2023-01-27T09:31:17.194Z,94239.47
2023-01-27T09:33:43.994Z,94229.47
2023-01-27T09:36:19.124Z,94219.63
2023-01-27T09:38:54.620Z,94210.41
2023-01-27T09:41:43.158Z,94216.59
2023-01-27T09:44:35.910Z,94218.75
2023-01-27T09:47:27.315Z,94206.22
2023-01-27T09:50:11.086Z,94215.09
2023-01-27T09:52:58.256Z,94212.56
2023-01-27T09:56:04.757Z,94205.63
2023-01-27T09:58:41.523Z,94199.59
2023-01-27T10:01:28.510Z,94193.59
2023-01-27T10:04:26.265Z,94188.28
2023-01-27T10:07:08.029Z,94186.00
2023-01-27T10:10:16.115Z,94190.78
2023-01-27T10:13:11.639Z,94184.88
2023-01-27T10:15:39.713Z,94186.88
2023-01-27T10:18:24.845Z,94188.06
2023-01-27T10:21:16.911Z,94194.56
2023-01-27T10:23:55.800Z,94189.53
2023-01-27T10:26:35.917Z,94187.78
2023-01-27T10:29:18.877Z,94185.59
2023-01-27T10:31:52.615Z,94190.16
2023-01-27T10:34:22.243Z,94180.16
2023-01-27T10:37:17.400Z,94178.00
2023-01-27T10:39:56.858Z,94171.19
2023-01-27T10:42:38.803Z,94183.53
2023-01-27T10:45:24.417Z,94177.78
2023-01-27T10:48:03.391Z,94180.06
2023-01-27T10:50:43.529Z,94169.22
2023-01-27T10:53:20.173Z,94169.31
2023-01-27T10:55:56.987Z,94172.88
2023-01-27T10:58:29.683Z,94163.59
2023-01-27T11:01:19.827Z,94174.06
2023-01-27T11:04:03.877Z,94174.06
2023-01-27T11:06:40.268Z,94170.50
2023-01-27T11:09:25.481Z,94175.47
2023-01-27T11:11:54.019Z,94174.75
2023-01-27T11:14:34.268Z,94174.22
2023-01-27T11:17:37.144Z,94168.72
2023-01-27T11:20:22.113Z,94159.22
2023-01-27T11:22:57.011Z,94147.50
2023-01-27T11:25:26.783Z,94157.81
2023-01-27T11:28:05.544Z,94156.28
2023-01-27T11:30:42.735Z,94138.34
2023-01-27T11:33:23.193Z,94154.28
2023-01-27T11:35:51.326Z,94148.75
2023-01-27T11:38:21.837Z,94147.34
2023-01-27T11:40:51.263Z,94151.84
2023-01-27T11:43:21.285Z,94142.28
2023-01-27T11:45:50.155Z,94156.78
2023-01-27T11:48:21.722Z,94147.00
2023-01-27T11:50:50.155Z,94146.25
2023-01-27T11:53:16.860Z,94150.34
2023-01-27T11:55:50.041Z,94142.72
2023-01-27T11:58:30.644Z,94144.16
2023-01-27T12:01:05.555Z,94147.44
2023-01-27T12:03:32.341Z,94138.88
2023-01-27T12:06:09.392Z,94132.31
2023-01-27T12:08:45.215Z,94125.06
2023-01-27T12:11:22.435Z,94130.28
2023-01-27T12:13:54.863Z,94126.03
2023-01-27T12:16:47.613Z,94142.31
2023-01-27T12:19:34.730Z,94145.38
2023-01-27T12:22:07.770Z,94133.75
2023-01-27T12:24:38.833Z,94130.91
2023-01-27T12:27:07.784Z,94147.59
2023-01-27T12:29:42.190Z,94143.47
2023-01-27T12:32:20.556Z,94142.78
2023-01-27T12:34:52.216Z,94138.09
2023-01-27T12:37:27.466Z,94135.34
2023-01-27T12:40:03.632Z,94135.84
2023-01-27T12:43:02.728Z,94132.16
2023-01-27T12:45:38.397Z,94135.34
2023-01-27T12:48:14.229Z,94135.56
2023-01-27T12:50:52.929Z,94133.78
2023-01-27T12:53:27.807Z,94134.31
2023-01-27T12:56:01.502Z,94130.91
2023-01-27T12:58:40.421Z,94138.59
2023-01-27T13:01:26.905Z,94141.97
2023-01-27T13:04:16.589Z,94135.81
2023-01-27T13:06:51.367Z,94127.91
2023-01-27T13:09:33.937Z,94129.66
2023-01-27T13:12:05.427Z,94136.97
2023-01-27T13:14:39.767Z,94135.56
2023-01-27T13:17:30.334Z,94141.69
2023-01-27T13:20:01.885Z,94142.03
2023-01-27T13:22:33.292Z,94124.19
2023-01-27T13:25:03.545Z,94136.06
2023-01-27T13:27:39.850Z,94138.63
2023-01-27T13:30:41.162Z,94142.66
2023-01-27T13:33:30.868Z,94142.75
2023-01-27T13:36:40.410Z,94149.72
2023-01-27T13:39:20.149Z,94143.00
2023-01-27T13:42:02.438Z,94147.88
2023-01-27T13:44:41.682Z,94151.22
2023-01-27T13:47:18.931Z,94144.03
2023-01-27T13:50:03.166Z,94152.28
2023-01-27T13:52:30.026Z,94156.41
2023-01-27T13:54:57.813Z,94148.03
2023-01-27T13:57:54.422Z,94147.59
2023-01-27T14:00:27.485Z,94164.69
2023-01-27T14:03:15.805Z,94156.59
2023-01-27T14:05:54.790Z,94158.41
2023-01-27T14:08:45.360Z,94168.78
2023-01-27T14:11:27.361Z,94170.50
2023-01-27T14:14:12.665Z,94167.88
2023-01-27T14:17:26.631Z,94178.53
2023-01-27T14:20:20.283Z,94168.44
2023-01-27T14:23:00.327Z,94178.69
2023-01-27T14:25:44.656Z,94169.06
2023-01-27T14:28:28.708Z,94171.59
2023-01-27T14:31:01.379Z,94177.06
2023-01-27T14:34:10.040Z,94184.41
2023-01-27T14:36:47.170Z,94171.66
2023-01-27T14:39:46.092Z,94179.44
2023-01-27T14:42:28.737Z,94188.06
2023-01-27T14:45:13.454Z,94167.66
2023-01-27T14:47:53.182Z,94187.25
2023-01-27T14:50:22.790Z,94189.19
2023-01-27T14:53:11.478Z,94192.69
2023-01-27T14:56:02.456Z,94196.81
2023-01-27T14:59:02.202Z,94212.03
2023-01-27T15:01:39.588Z,94205.75
2023-01-27T15:04:21.433Z,94204.91
2023-01-27T15:06:56.757Z,94214.66
2023-01-27T15:09:34.162Z,94216.28
2023-01-27T15:12:30.459Z,94215.75
2023-01-27T15:15:30.906Z,94213.19
2023-01-27T15:18:45.697Z,94219.75
2023-01-27T15:21:21.385Z,94219.75
2023-01-27T15:23:55.726Z,94218.91
2023-01-27T15:26:27.084Z,94225.84
2023-01-27T15:28:54.954Z,94213.00
2023-01-27T15:31:25.781Z,94221.97
2023-01-27T15:34:04.446Z,94226.34
2023-01-27T15:36:32.867Z,94234.69
2023-01-27T15:39:00.812Z,94229.25
2023-01-27T15:41:28.187Z,94234.41
2023-01-27T15:44:16.252Z,94226.06
2023-01-27T15:46:50.911Z,94239.84
2023-01-27T15:49:30.610Z,94238.25
2023-01-27T15:52:10.915Z,94242.75
2023-01-27T15:54:41.012Z,94246.69
2023-01-27T15:57:25.229Z,94240.47
2023-01-27T15:59:59.055Z,94251.09
2023-01-27T16:02:32.072Z,94255.00
2023-01-27T16:05:17.619Z,94256.06
2023-01-27T16:07:50.441Z,94263.47
2023-01-27T16:10:22.286Z,94263.47
2023-01-27T16:12:49.634Z,94260.44
2023-01-27T16:15:19.419Z,94258.97
2023-01-27T16:18:25.699Z,94267.59
2023-01-27T16:21:06.841Z,94277.97
2023-01-27T16:23:43.001Z,94268.47
2023-01-27T16:26:25.285Z,94283.78
2023-01-27T16:28:57.345Z,94286.66
2023-01-27T16:31:29.501Z,94283.31
2023-01-27T16:34:00.343Z,94284.78
2023-01-27T16:36:30.085Z,94282.41
2023-01-27T16:39:03.162Z,94286.75
2023-01-27T16:41:36.219Z,94282.72
2023-01-27T16:44:07.824Z,94284.13
2023-01-27T16:46:39.777Z,94285.84
2023-01-27T16:49:21.965Z,94281.13
2023-01-27T16:51:56.833Z,94278.88
2023-01-27T16:54:34.521Z,94283.91
2023-01-27T16:57:03.894Z,94280.84
2023-01-27T16:59:37.296Z,94293.09
2023-01-27T17:02:12.795Z,94283.91
2023-01-27T17:04:39.988Z,94288.13
2023-01-27T17:07:12.054Z,94291.78
2023-01-27T17:09:50.119Z,94296.28
2023-01-27T17:12:28.345Z,94292.06
2023-01-27T17:14:55.794Z,94305.78
2023-01-27T17:17:25.051Z,94302.56
2023-01-27T17:19:56.025Z,94302.09
2023-01-27T17:22:26.193Z,94302.81
2023-01-27T17:24:55.296Z,94298.47
2023-01-27T17:27:34.244Z,94300.50
2023-01-27T17:30:06.544Z,94306.59
2023-01-27T17:32:39.881Z,94305.19
2023-01-27T17:35:19.295Z,94302.72
2023-01-27T17:37:46.060Z,94315.16
2023-01-27T17:40:18.476Z,94324.25
2023-01-27T17:42:45.602Z,94326.28
2023-01-27T17:45:30.072Z,94325.66
2023-01-27T17:48:01.300Z,94333.19
2023-01-27T17:50:36.331Z,94338.97
2023-01-27T17:53:06.170Z,94335.13
2023-01-27T17:55:33.173Z,94339.75
2023-01-27T17:58:06.350Z,94332.69
2023-01-27T18:00:41.475Z,94342.38
2023-01-27T18:03:20.487Z,94340.31
2023-01-27T18:05:50.116Z,94342.16
2023-01-27T18:08:21.486Z,94344.41
2023-01-27T18:10:48.450Z,94349.31
2023-01-27T18:13:18.279Z,94352.47
2023-01-27T18:15:58.105Z,94351.28
2023-01-27T18:18:28.078Z,94350.56
2023-01-27T18:21:04.024Z,94352.13
2023-01-27T18:23:34.378Z,94353.56
2023-01-27T18:26:05.942Z,94352.38
2023-01-27T18:28:36.101Z,94351.84
2023-01-27T18:31:03.324Z,94360.63
2023-01-27T18:33:33.892Z,94350.25
2023-01-27T18:36:00.917Z,94346.47
2023-01-27T18:38:32.673Z,94365.28
2023-01-27T18:41:19.054Z,94360.00
2023-01-27T18:43:48.197Z,94352.47
2023-01-27T18:46:15.164Z,94344.41
2023-01-27T18:48:42.316Z,94368.81
2023-01-27T18:51:14.368Z,94362.22
2023-01-27T18:53:41.944Z,94372.19
2023-01-27T18:56:09.256Z,94375.91
2023-01-27T18:58:36.524Z,94375.34
2023-01-27T19:01:05.664Z,94372.50
2023-01-27T19:03:34.788Z,94370.31
2023-01-27T19:06:01.644Z,94366.94
2023-01-27T19:08:28.746Z,94364.72
2023-01-27T19:10:55.602Z,94372.47
2023-01-27T19:13:23.591Z,94371.03
2023-01-27T19:15:53.474Z,94369.16
2023-01-27T19:18:38.903Z,94371.09
2023-01-27T19:21:06.200Z,94377.31
2023-01-27T19:23:33.034Z,94368.53
2023-01-27T19:26:02.228Z,94362.22
2023-01-27T19:28:31.540Z,94369.91
2023-01-27T19:30:59.196Z,94379.38
2023-01-27T19:33:27.655Z,94386.75
2023-01-27T19:36:00.712Z,94377.13
2023-01-27T19:38:29.459Z,94378.22
2023-01-27T19:40:56.149Z,94385.06
2023-01-27T19:43:24.241Z,94391.19
2023-01-27T19:45:53.215Z,94390.41
2023-01-27T19:48:24.053Z,94379.69
2023-01-27T19:50:52.367Z,94381.81
2023-01-27T19:53:20.381Z,94388.22
2023-01-27T19:55:47.871Z,94386.94
2023-01-27T19:58:25.952Z,94391.34
2023-01-27T20:00:54.591Z,94390.78
2023-01-27T20:03:23.092Z,94390.88
2023-01-27T20:05:50.145Z,94388.22
2023-01-27T20:08:19.543Z,94390.78
2023-01-27T20:10:46.871Z,94396.25
2023-01-27T20:13:16.554Z,94394.09
2023-01-27T20:15:45.716Z,94382.53
2023-01-27T20:18:17.354Z,94397.81
2023-01-27T20:20:45.112Z,94391.66
2023-01-27T20:23:13.673Z,94392.75
2023-01-27T20:25:40.517Z,94400.75
2023-01-27T20:28:08.216Z,94400.63
2023-01-27T20:30:35.230Z,94406.38
2023-01-27T20:33:03.817Z,94409.75
2023-01-27T20:35:31.201Z,94400.72
2023-01-27T20:37:57.989Z,94403.47
2023-01-27T20:40:27.830Z,94411.66
2023-01-27T20:42:54.710Z,94405.00
2023-01-27T20:45:22.501Z,94410.28
2023-01-27T20:47:54.089Z,94419.56
2023-01-27T20:50:23.380Z,94419.13
2023-01-27T20:52:51.456Z,94415.00
2023-01-27T20:55:21.686Z,94413.97
2023-01-27T20:57:49.232Z,94417.63
2023-01-27T21:00:20.992Z,94425.75
2023-01-27T21:02:49.078Z,94427.72
2023-01-27T21:05:16.280Z,94422.84
2023-01-27T21:07:43.317Z,94426.16
2023-01-27T21:10:10.890Z,94423.19
2023-01-27T21:12:37.854Z,94432.16
2023-01-27T21:15:09.715Z,94433.53
2023-01-27T21:17:37.405Z,94433.25
2023-01-27T21:20:04.540Z,94436.81
2023-01-27T21:22:31.478Z,94432.28
2023-01-27T21:24:58.261Z,94430.13
2023-01-27T21:27:26.106Z,94423.81
2023-01-27T21:29:53.012Z,94438.16
2023-01-27T21:32:20.003Z,94434.13
2023-01-27T21:34:46.724Z,94449.16
2023-01-27T21:37:13.637Z,94446.03
2023-01-27T21:39:41.362Z,94446.06
2023-01-27T21:42:13.459Z,94453.19
2023-01-27T21:44:58.595Z,94444.44
2023-01-27T21:47:25.586Z,94453.78
2023-01-27T21:50:01.189Z,94455.88
2023-01-27T21:52:39.066Z,94457.19
2023-01-27T21:55:08.366Z,94447.03
2023-01-27T21:57:35.537Z,94455.47
2023-01-27T22:00:03.495Z,94455.66
2023-01-27T22:02:39.679Z,94380.06
2023-01-27T22:05:07.365Z,94447.41
2023-01-27T22:07:38.435Z,94454.31
2023-01-27T22:10:13.350Z,94455.81
2023-01-27T22:12:40.272Z,94459.31
2023-01-27T22:15:09.755Z,94463.03
2023-01-27T22:17:36.610Z,94457.28
2023-01-27T22:20:04.703Z,94462.38
2023-01-27T22:22:31.652Z,94455.59
2023-01-27T22:24:58.496Z,94457.84
2023-01-27T22:27:25.311Z,94456.84
2023-01-27T22:29:52.134Z,94458.81
2023-01-27T22:32:18.922Z,94462.38
2023-01-27T22:34:47.859Z,94465.56
2023-01-27T22:37:14.708Z,94467.31
2023-01-27T22:39:42.385Z,94457.88
2023-01-27T22:42:10.009Z,94474.47
2023-01-27T22:44:36.797Z,94474.91
2023-01-27T22:47:04.483Z,94479.91
2023-01-27T22:49:31.234Z,94475.06
2023-01-27T22:51:57.965Z,94480.88
2023-01-27T22:54:24.728Z,94479.25
2023-01-27T22:56:51.434Z,94483.91
2023-01-27T22:59:18.328Z,94474.88
2023-01-27T23:01:45.245Z,94474.19
2023-01-27T23:04:12.557Z,94473.22
2023-01-27T23:06:39.247Z,94475.28
2023-01-27T23:09:06.255Z,94477.47
2023-01-27T23:11:33.136Z,94474.41
2023-01-27T23:14:01.309Z,94467.75
2023-01-27T23:16:28.208Z,94465.28
2023-01-27T23:18:55.011Z,94461.16
2023-01-27T23:21:21.738Z,94458.78
2023-01-27T23:23:51.106Z,94464.72
2023-01-27T23:26:17.951Z,94466.81
2023-01-27T23:28:44.838Z,94465.47
2023-01-27T23:31:13.212Z,94464.50
2023-01-27T23:33:41.860Z,94464.06
2023-01-27T23:36:10.324Z,94472.22
2023-01-27T23:38:38.105Z,94469.50
2023-01-27T23:41:18.496Z,94466.44
2023-01-27T23:43:51.382Z,94478.66
2023-01-27T23:46:19.524Z,94469.16
2023-01-27T23:48:53.805Z,94477.03
2023-01-27T23:51:22.397Z,94473.91
2023-01-27T23:53:49.603Z,94449.25
2023-01-27T23:56:19.227Z,94478.31
2023-01-27T23:58:46.646Z,94471.78
